sensor_id;sensor_type;location;lat;lon;timestamp;P1;durP1;ratioP1;P2;durP2;ratioP2
239;SDS011;104;53.590;10.004;2023-03-11T00:01:59;12.97;;;4.63;;
239;SDS011;104;53.590;10.004;2023-03-11T00:04:26;20.37;;;5.63;;
239;SDS011;104;53.590;10.004;2023-03-11T00:06:54;18.10;;;4.80;;
239;SDS011;104;53.590;10.004;2023-03-11T00:09:22;14.80;;;4.80;;
239;SDS011;104;53.590;10.004;2023-03-11T00:11:49;17.83;;;5.33;;
239;SDS011;104;53.590;10.004;2023-03-11T00:14:16;15.27;;;4.60;;
239;SDS011;104;53.590;10.004;2023-03-11T00:16:43;16.83;;;4.67;;
239;SDS011;104;53.590;10.004;2023-03-11T00:19:10;12.20;;;3.90;;
239;SDS011;104;53.590;10.004;2023-03-11T00:21:38;15.40;;;5.03;;
239;SDS011;104;53.590;10.004;2023-03-11T00:24:06;19.50;;;5.67;;
239;SDS011;104;53.590;10.004;2023-03-11T00:26:34;13.57;;;4.33;;
239;SDS011;104;53.590;10.004;2023-03-11T00:29:01;10.03;;;3.80;;
239;SDS011;104;53.590;10.004;2023-03-11T00:31:28;17.53;;;5.07;;
239;SDS011;104;53.590;10.004;2023-03-11T00:33:56;16.87;;;5.13;;
239;SDS011;104;53.590;10.004;2023-03-11T00:36:23;21.83;;;5.50;;
239;SDS011;104;53.590;10.004;2023-03-11T00:38:55;16.03;;;4.90;;
239;SDS011;104;53.590;10.004;2023-03-11T00:41:24;8.93;;;3.37;;
239;SDS011;104;53.590;10.004;2023-03-11T00:43:52;12.33;;;4.23;;
239;SDS011;104;53.590;10.004;2023-03-11T00:46:19;15.10;;;4.77;;
239;SDS011;104;53.590;10.004;2023-03-11T00:48:46;12.00;;;4.20;;
239;SDS011;104;53.590;10.004;2023-03-11T00:51:15;14.47;;;4.30;;
239;SDS011;104;53.590;10.004;2023-03-11T00:53:43;19.33;;;5.33;;
239;SDS011;104;53.590;10.004;2023-03-11T00:56:11;17.50;;;4.80;;
239;SDS011;104;53.590;10.004;2023-03-11T00:58:40;14.70;;;4.40;;
239;SDS011;104;53.590;10.004;2023-03-11T01:01:09;15.50;;;4.57;;
239;SDS011;104;53.590;10.004;2023-03-11T01:03:37;18.20;;;4.53;;
239;SDS011;104;53.590;10.004;2023-03-11T01:06:04;12.73;;;4.07;;
239;SDS011;104;53.590;10.004;2023-03-11T01:08:32;9.20;;;3.50;;
239;SDS011;104;53.590;10.004;2023-03-11T01:10:59;14.43;;;4.43;;
239;SDS011;104;53.590;10.004;2023-03-11T01:13:27;17.13;;;4.73;;
239;SDS011;104;53.590;10.004;2023-03-11T01:15:56;10.90;;;3.67;;
239;SDS011;104;53.590;10.004;2023-03-11T01:18:24;14.70;;;4.57;;
239;SDS011;104;53.590;10.004;2023-03-11T01:20:51;14.00;;;4.33;;
239;SDS011;104;53.590;10.004;2023-03-11T01:23:18;14.03;;;4.17;;
239;SDS011;104;53.590;10.004;2023-03-11T01:25:46;14.53;;;4.33;;
239;SDS011;104;53.590;10.004;2023-03-11T01:28:13;18.50;;;4.90;;
239;SDS011;104;53.590;10.004;2023-03-11T01:30:41;17.77;;;5.20;;
239;SDS011;104;53.590;10.004;2023-03-11T01:33:12;9.47;;;3.67;;
239;SDS011;104;53.590;10.004;2023-03-11T01:35:39;16.97;;;5.00;;
239;SDS011;104;53.590;10.004;2023-03-11T01:38:07;14.07;;;4.37;;
239;SDS011;104;53.590;10.004;2023-03-11T01:40:36;12.43;;;4.17;;
239;SDS011;104;53.590;10.004;2023-03-11T01:43:04;22.33;;;5.60;;
239;SDS011;104;53.590;10.004;2023-03-11T01:45:36;19.50;;;5.57;;
239;SDS011;104;53.590;10.004;2023-03-11T01:48:05;17.13;;;5.17;;
239;SDS011;104;53.590;10.004;2023-03-11T01:50:35;18.10;;;5.27;;
239;SDS011;104;53.590;10.004;2023-03-11T01:53:03;19.60;;;5.83;;
239;SDS011;104;53.590;10.004;2023-03-11T01:55:31;25.87;;;5.50;;
239;SDS011;104;53.590;10.004;2023-03-11T01:57:58;18.50;;;5.53;;
239;SDS011;104;53.590;10.004;2023-03-11T02:00:26;21.60;;;6.00;;
239;SDS011;104;53.590;10.004;2023-03-11T02:02:53;14.27;;;4.67;;
239;SDS011;104;53.590;10.004;2023-03-11T02:05:22;17.40;;;5.17;;
239;SDS011;104;53.590;10.004;2023-03-11T02:07:51;9.60;;;3.63;;
239;SDS011;104;53.590;10.004;2023-03-11T02:10:19;16.33;;;4.60;;
239;SDS011;104;53.590;10.004;2023-03-11T02:12:47;18.30;;;5.40;;
239;SDS011;104;53.590;10.004;2023-03-11T02:15:14;15.53;;;4.80;;
239;SDS011;104;53.590;10.004;2023-03-11T02:17:42;21.10;;;6.47;;
239;SDS011;104;53.590;10.004;2023-03-11T02:20:21;22.93;;;6.30;;
239;SDS011;104;53.590;10.004;2023-03-11T02:22:54;17.90;;;5.13;;
239;SDS011;104;53.590;10.004;2023-03-11T02:25:23;18.97;;;5.37;;
239;SDS011;104;53.590;10.004;2023-03-11T02:27:54;21.70;;;6.07;;
239;SDS011;104;53.590;10.004;2023-03-11T02:30:22;18.80;;;5.13;;
239;SDS011;104;53.590;10.004;2023-03-11T02:32:49;12.10;;;3.80;;
239;SDS011;104;53.590;10.004;2023-03-11T02:35:17;18.70;;;5.30;;
239;SDS011;104;53.590;10.004;2023-03-11T02:37:45;15.80;;;4.67;;
239;SDS011;104;53.590;10.004;2023-03-11T02:40:22;18.60;;;5.43;;
239;SDS011;104;53.590;10.004;2023-03-11T02:42:56;12.93;;;4.37;;
239;SDS011;104;53.590;10.004;2023-03-11T02:45:24;18.00;;;5.37;;
239;SDS011;104;53.590;10.004;2023-03-11T02:47:53;14.53;;;4.60;;
239;SDS011;104;53.590;10.004;2023-03-11T02:50:21;18.43;;;5.97;;
239;SDS011;104;53.590;10.004;2023-03-11T02:52:49;17.17;;;5.53;;
239;SDS011;104;53.590;10.004;2023-03-11T02:55:17;22.80;;;6.70;;
239;SDS011;104;53.590;10.004;2023-03-11T02:57:45;14.40;;;4.63;;
239;SDS011;104;53.590;10.004;2023-03-11T03:00:14;18.60;;;5.60;;
239;SDS011;104;53.590;10.004;2023-03-11T03:02:43;20.20;;;6.03;;
239;SDS011;104;53.590;10.004;2023-03-11T03:05:11;16.20;;;5.23;;
239;SDS011;104;53.590;10.004;2023-03-11T03:07:38;15.13;;;5.30;;
239;SDS011;104;53.590;10.004;2023-03-11T03:10:06;15.60;;;5.40;;
239;SDS011;104;53.590;10.004;2023-03-11T03:12:33;11.27;;;4.63;;
239;SDS011;104;53.590;10.004;2023-03-11T03:15:00;14.13;;;5.03;;
239;SDS011;104;53.590;10.004;2023-03-11T03:17:29;22.83;;;6.47;;
239;SDS011;104;53.590;10.004;2023-03-11T03:19:56;25.27;;;6.43;;
239;SDS011;104;53.590;10.004;2023-03-11T03:22:24;22.87;;;6.90;;
239;SDS011;104;53.590;10.004;2023-03-11T03:24:51;20.10;;;6.27;;
239;SDS011;104;53.590;10.004;2023-03-11T03:27:19;26.80;;;7.03;;
239;SDS011;104;53.590;10.004;2023-03-11T03:29:46;31.13;;;8.23;;
239;SDS011;104;53.590;10.004;2023-03-11T03:32:13;17.37;;;5.17;;
239;SDS011;104;53.590;10.004;2023-03-11T03:34:42;28.53;;;8.33;;
239;SDS011;104;53.590;10.004;2023-03-11T03:37:09;27.27;;;7.90;;
239;SDS011;104;53.590;10.004;2023-03-11T03:39:36;33.57;;;9.43;;
239;SDS011;104;53.590;10.004;2023-03-11T03:42:04;18.03;;;5.57;;
239;SDS011;104;53.590;10.004;2023-03-11T03:44:31;21.90;;;6.43;;
239;SDS011;104;53.590;10.004;2023-03-11T03:46:58;20.50;;;5.97;;
239;SDS011;104;53.590;10.004;2023-03-11T03:49:26;16.40;;;4.70;;
239;SDS011;104;53.590;10.004;2023-03-11T03:51:54;14.20;;;4.50;;
239;SDS011;104;53.590;10.004;2023-03-11T03:54:21;19.30;;;5.47;;
239;SDS011;104;53.590;10.004;2023-03-11T03:56:49;17.77;;;5.47;;
239;SDS011;104;53.590;10.004;2023-03-11T03:59:16;15.40;;;4.50;;
239;SDS011;104;53.590;10.004;2023-03-11T04:01:43;13.83;;;4.50;;
239;SDS011;104;53.590;10.004;2023-03-11T04:04:10;10.03;;;3.80;;
239;SDS011;104;53.590;10.004;2023-03-11T04:06:38;14.77;;;4.83;;
239;SDS011;104;53.590;10.004;2023-03-11T04:09:07;14.63;;;5.10;;
239;SDS011;104;53.590;10.004;2023-03-11T04:11:35;16.93;;;4.53;;
239;SDS011;104;53.590;10.004;2023-03-11T04:14:02;15.83;;;5.30;;
239;SDS011;104;53.590;10.004;2023-03-11T04:16:30;20.10;;;5.80;;
239;SDS011;104;53.590;10.004;2023-03-11T04:18:57;17.90;;;5.63;;
239;SDS011;104;53.590;10.004;2023-03-11T04:21:25;15.23;;;4.87;;
239;SDS011;104;53.590;10.004;2023-03-11T04:23:52;19.87;;;6.20;;
239;SDS011;104;53.590;10.004;2023-03-11T04:26:21;19.70;;;5.80;;
239;SDS011;104;53.590;10.004;2023-03-11T04:28:48;16.50;;;5.13;;
239;SDS011;104;53.590;10.004;2023-03-11T04:31:15;21.53;;;6.00;;
239;SDS011;104;53.590;10.004;2023-03-11T04:33:42;31.83;;;7.27;;
239;SDS011;104;53.590;10.004;2023-03-11T04:36:10;15.30;;;4.80;;
239;SDS011;104;53.590;10.004;2023-03-11T04:38:38;15.23;;;4.60;;
239;SDS011;104;53.590;10.004;2023-03-11T04:41:05;23.17;;;6.93;;
239;SDS011;104;53.590;10.004;2023-03-11T04:43:34;19.90;;;5.93;;
239;SDS011;104;53.590;10.004;2023-03-11T04:46:01;15.03;;;4.63;;
239;SDS011;104;53.590;10.004;2023-03-11T04:48:28;16.13;;;5.70;;
239;SDS011;104;53.590;10.004;2023-03-11T04:50:56;15.03;;;5.00;;
239;SDS011;104;53.590;10.004;2023-03-11T04:53:23;17.77;;;5.47;;
239;SDS011;104;53.590;10.004;2023-03-11T04:55:51;27.63;;;6.97;;
239;SDS011;104;53.590;10.004;2023-03-11T04:58:18;18.67;;;6.20;;
239;SDS011;104;53.590;10.004;2023-03-11T05:00:47;28.40;;;8.07;;
239;SDS011;104;53.590;10.004;2023-03-11T05:03:14;17.27;;;5.73;;
239;SDS011;104;53.590;10.004;2023-03-11T05:05:41;26.03;;;7.00;;
239;SDS011;104;53.590;10.004;2023-03-11T05:08:09;33.13;;;8.13;;
239;SDS011;104;53.590;10.004;2023-03-11T05:10:36;18.27;;;5.47;;
239;SDS011;104;53.590;10.004;2023-03-11T05:13:06;19.90;;;6.93;;
239;SDS011;104;53.590;10.004;2023-03-11T05:15:33;17.70;;;5.90;;
239;SDS011;104;53.590;10.004;2023-03-11T05:18:02;17.33;;;5.73;;
239;SDS011;104;53.590;10.004;2023-03-11T05:20:29;19.87;;;5.77;;
239;SDS011;104;53.590;10.004;2023-03-11T05:22:57;15.23;;;4.70;;
239;SDS011;104;53.590;10.004;2023-03-11T05:25:24;18.10;;;5.90;;
239;SDS011;104;53.590;10.004;2023-03-11T05:27:51;8.10;;;3.57;;
239;SDS011;104;53.590;10.004;2023-03-11T05:30:19;12.53;;;4.23;;
239;SDS011;104;53.590;10.004;2023-03-11T05:32:46;21.10;;;5.97;;
239;SDS011;104;53.590;10.004;2023-03-11T05:35:15;23.33;;;6.70;;
239;SDS011;104;53.590;10.004;2023-03-11T05:37:42;19.87;;;6.07;;
239;SDS011;104;53.590;10.004;2023-03-11T05:40:10;21.77;;;6.60;;
239;SDS011;104;53.590;10.004;2023-03-11T05:42:37;25.20;;;7.30;;
239;SDS011;104;53.590;10.004;2023-03-11T05:45:06;14.80;;;5.27;;
239;SDS011;104;53.590;10.004;2023-03-11T05:47:33;23.10;;;6.20;;
239;SDS011;104;53.590;10.004;2023-03-11T05:50:00;16.47;;;4.93;;
239;SDS011;104;53.590;10.004;2023-03-11T05:52:29;19.13;;;5.90;;
239;SDS011;104;53.590;10.004;2023-03-11T05:54:57;18.20;;;5.73;;
239;SDS011;104;53.590;10.004;2023-03-11T05:57:25;19.33;;;5.70;;
239;SDS011;104;53.590;10.004;2023-03-11T05:59:52;15.53;;;5.47;;
239;SDS011;104;53.590;10.004;2023-03-11T06:02:19;19.40;;;5.30;;
239;SDS011;104;53.590;10.004;2023-03-11T06:04:47;22.60;;;6.37;;
239;SDS011;104;53.590;10.004;2023-03-11T06:07:14;19.07;;;6.40;;
239;SDS011;104;53.590;10.004;2023-03-11T06:09:43;17.83;;;5.60;;
239;SDS011;104;53.590;10.004;2023-03-11T06:12:10;13.03;;;4.60;;
239;SDS011;104;53.590;10.004;2023-03-11T06:14:37;23.57;;;6.63;;
239;SDS011;104;53.590;10.004;2023-03-11T06:17:04;15.60;;;5.10;;
239;SDS011;104;53.590;10.004;2023-03-11T06:19:32;22.40;;;6.07;;
239;SDS011;104;53.590;10.004;2023-03-11T06:21:59;14.93;;;4.90;;
239;SDS011;104;53.590;10.004;2023-03-11T06:24:26;19.57;;;5.77;;
239;SDS011;104;53.590;10.004;2023-03-11T06:26:55;14.50;;;4.90;;
239;SDS011;104;53.590;10.004;2023-03-11T06:29:22;20.83;;;6.20;;
239;SDS011;104;53.590;10.004;2023-03-11T06:31:50;15.80;;;5.33;;
239;SDS011;104;53.590;10.004;2023-03-11T06:34:18;13.83;;;4.33;;
239;SDS011;104;53.590;10.004;2023-03-11T06:36:45;25.60;;;7.13;;
239;SDS011;104;53.590;10.004;2023-03-11T06:39:13;20.80;;;6.23;;
239;SDS011;104;53.590;10.004;2023-03-11T06:41:40;17.17;;;4.83;;
239;SDS011;104;53.590;10.004;2023-03-11T06:44:09;12.00;;;4.40;;
239;SDS011;104;53.590;10.004;2023-03-11T06:46:36;13.40;;;4.80;;
239;SDS011;104;53.590;10.004;2023-03-11T06:49:04;16.33;;;5.07;;
239;SDS011;104;53.590;10.004;2023-03-11T06:51:31;15.17;;;4.53;;
239;SDS011;104;53.590;10.004;2023-03-11T06:53:59;15.30;;;5.07;;
239;SDS011;104;53.590;10.004;2023-03-11T06:56:26;20.83;;;6.23;;
239;SDS011;104;53.590;10.004;2023-03-11T06:58:53;27.50;;;7.07;;
239;SDS011;104;53.590;10.004;2023-03-11T07:01:22;23.50;;;6.40;;
239;SDS011;104;53.590;10.004;2023-03-11T07:03:51;16.27;;;5.53;;
239;SDS011;104;53.590;10.004;2023-03-11T07:06:19;13.40;;;5.17;;
239;SDS011;104;53.590;10.004;2023-03-11T07:08:47;20.53;;;6.23;;
239;SDS011;104;53.590;10.004;2023-03-11T07:11:16;22.83;;;6.30;;
239;SDS011;104;53.590;10.004;2023-03-11T07:13:45;12.80;;;4.90;;
239;SDS011;104;53.590;10.004;2023-03-11T07:16:13;11.07;;;4.10;;
239;SDS011;104;53.590;10.004;2023-03-11T07:18:45;22.63;;;6.63;;
239;SDS011;104;53.590;10.004;2023-03-11T07:21:14;22.13;;;6.93;;
239;SDS011;104;53.590;10.004;2023-03-11T07:23:43;16.00;;;5.00;;
239;SDS011;104;53.590;10.004;2023-03-11T07:26:10;18.20;;;5.83;;
239;SDS011;104;53.590;10.004;2023-03-11T07:28:39;10.63;;;4.27;;
239;SDS011;104;53.590;10.004;2023-03-11T07:31:07;22.80;;;6.57;;
239;SDS011;104;53.590;10.004;2023-03-11T07:33:35;18.73;;;5.40;;
239;SDS011;104;53.590;10.004;2023-03-11T07:36:08;20.73;;;5.97;;
239;SDS011;104;53.590;10.004;2023-03-11T07:38:36;13.37;;;4.47;;
239;SDS011;104;53.590;10.004;2023-03-11T07:41:05;14.33;;;5.47;;
239;SDS011;104;53.590;10.004;2023-03-11T07:43:34;15.50;;;5.10;;
239;SDS011;104;53.590;10.004;2023-03-11T07:46:02;19.90;;;4.93;;
239;SDS011;104;53.590;10.004;2023-03-11T07:48:39;31.70;;;8.27;;
239;SDS011;104;53.590;10.004;2023-03-11T07:51:09;20.70;;;6.40;;
239;SDS011;104;53.590;10.004;2023-03-11T07:53:37;22.13;;;6.30;;
239;SDS011;104;53.590;10.004;2023-03-11T07:56:05;21.10;;;5.93;;
239;SDS011;104;53.590;10.004;2023-03-11T07:58:33;18.43;;;5.93;;
239;SDS011;104;53.590;10.004;2023-03-11T08:01:02;9.13;;;3.80;;
239;SDS011;104;53.590;10.004;2023-03-11T08:03:29;14.30;;;4.40;;
239;SDS011;104;53.590;10.004;2023-03-11T08:05:57;22.10;;;5.93;;
239;SDS011;104;53.590;10.004;2023-03-11T08:08:25;20.90;;;5.83;;
239;SDS011;104;53.590;10.004;2023-03-11T08:10:53;21.60;;;5.73;;
239;SDS011;104;53.590;10.004;2023-03-11T08:13:20;23.93;;;6.70;;
239;SDS011;104;53.590;10.004;2023-03-11T08:15:47;13.40;;;4.83;;
239;SDS011;104;53.590;10.004;2023-03-11T08:18:14;16.20;;;5.20;;
239;SDS011;104;53.590;10.004;2023-03-11T08:20:42;26.23;;;7.67;;
239;SDS011;104;53.590;10.004;2023-03-11T08:23:10;13.90;;;4.43;;
239;SDS011;104;53.590;10.004;2023-03-11T08:25:39;20.37;;;6.53;;
239;SDS011;104;53.590;10.004;2023-03-11T08:28:06;28.10;;;7.60;;
239;SDS011;104;53.590;10.004;2023-03-11T08:30:34;25.07;;;6.60;;
239;SDS011;104;53.590;10.004;2023-03-11T08:33:02;19.67;;;5.57;;
239;SDS011;104;53.590;10.004;2023-03-11T08:35:29;18.37;;;5.93;;
239;SDS011;104;53.590;10.004;2023-03-11T08:37:59;24.33;;;5.70;;
239;SDS011;104;53.590;10.004;2023-03-11T08:40:26;18.90;;;5.73;;
239;SDS011;104;53.590;10.004;2023-03-11T08:42:55;21.13;;;5.60;;
239;SDS011;104;53.590;10.004;2023-03-11T08:45:22;26.57;;;7.63;;
239;SDS011;104;53.590;10.004;2023-03-11T08:47:50;31.63;;;8.07;;
239;SDS011;104;53.590;10.004;2023-03-11T08:50:17;19.47;;;6.10;;
239;SDS011;104;53.590;10.004;2023-03-11T08:52:45;17.27;;;5.20;;
239;SDS011;104;53.590;10.004;2023-03-11T08:55:12;29.33;;;6.50;;
239;SDS011;104;53.590;10.004;2023-03-11T08:57:41;22.77;;;6.30;;
239;SDS011;104;53.590;10.004;2023-03-11T09:00:11;21.33;;;6.27;;
239;SDS011;104;53.590;10.004;2023-03-11T09:02:38;25.23;;;7.60;;
239;SDS011;104;53.590;10.004;2023-03-11T09:05:06;30.33;;;7.60;;
239;SDS011;104;53.590;10.004;2023-03-11T09:07:33;33.63;;;8.93;;
239;SDS011;104;53.590;10.004;2023-03-11T09:10:00;23.57;;;8.53;;
239;SDS011;104;53.590;10.004;2023-03-11T09:12:28;28.53;;;11.03;;
239;SDS011;104;53.590;10.004;2023-03-11T09:14:55;34.67;;;10.20;;
239;SDS011;104;53.590;10.004;2023-03-11T09:17:24;27.50;;;10.10;;
239;SDS011;104;53.590;10.004;2023-03-11T09:19:51;31.27;;;10.67;;
239;SDS011;104;53.590;10.004;2023-03-11T09:22:18;27.73;;;8.07;;
239;SDS011;104;53.590;10.004;2023-03-11T09:24:45;26.87;;;6.97;;
239;SDS011;104;53.590;10.004;2023-03-11T09:27:13;18.27;;;5.93;;
239;SDS011;104;53.590;10.004;2023-03-11T09:29:40;24.53;;;6.77;;
239;SDS011;104;53.590;10.004;2023-03-11T09:32:08;33.47;;;8.53;;
239;SDS011;104;53.590;10.004;2023-03-11T09:34:39;24.80;;;6.77;;
239;SDS011;104;53.590;10.004;2023-03-11T09:37:07;20.93;;;5.53;;
239;SDS011;104;53.590;10.004;2023-03-11T09:39:34;18.90;;;5.73;;
239;SDS011;104;53.590;10.004;2023-03-11T09:42:02;27.37;;;7.83;;
239;SDS011;104;53.590;10.004;2023-03-11T09:44:38;31.63;;;7.23;;
239;SDS011;104;53.590;10.004;2023-03-11T09:47:17;19.70;;;5.50;;
239;SDS011;104;53.590;10.004;2023-03-11T09:50:01;25.67;;;5.87;;
239;SDS011;104;53.590;10.004;2023-03-11T09:52:31;18.13;;;5.23;;
239;SDS011;104;53.590;10.004;2023-03-11T09:55:03;19.57;;;5.20;;
239;SDS011;104;53.590;10.004;2023-03-11T09:57:32;11.67;;;3.97;;
239;SDS011;104;53.590;10.004;2023-03-11T10:00:00;27.90;;;7.20;;
239;SDS011;104;53.590;10.004;2023-03-11T10:02:29;18.73;;;5.73;;
239;SDS011;104;53.590;10.004;2023-03-11T10:04:58;25.20;;;8.50;;
239;SDS011;104;53.590;10.004;2023-03-11T10:07:31;16.40;;;5.17;;
239;SDS011;104;53.590;10.004;2023-03-11T10:09:59;24.43;;;5.53;;
239;SDS011;104;53.590;10.004;2023-03-11T10:12:31;19.20;;;5.23;;
239;SDS011;104;53.590;10.004;2023-03-11T10:15:21;17.83;;;5.50;;
239;SDS011;104;53.590;10.004;2023-03-11T10:18:00;21.10;;;5.90;;
239;SDS011;104;53.590;10.004;2023-03-11T10:20:33;14.17;;;4.40;;
239;SDS011;104;53.590;10.004;2023-03-11T10:23:14;12.13;;;4.10;;
239;SDS011;104;53.590;10.004;2023-03-11T10:25:53;17.97;;;6.20;;
239;SDS011;104;53.590;10.004;2023-03-11T10:28:26;28.27;;;7.10;;
239;SDS011;104;53.590;10.004;2023-03-11T10:30:56;16.47;;;5.17;;
239;SDS011;104;53.590;10.004;2023-03-11T10:33:28;26.97;;;6.50;;
239;SDS011;104;53.590;10.004;2023-03-11T10:35:58;27.77;;;7.13;;
239;SDS011;104;53.590;10.004;2023-03-11T10:38:29;21.97;;;6.10;;
239;SDS011;104;53.590;10.004;2023-03-11T10:41:02;25.97;;;7.10;;
239;SDS011;104;53.590;10.004;2023-03-11T10:43:32;27.30;;;9.17;;
239;SDS011;104;53.590;10.004;2023-03-11T10:46:01;33.27;;;9.83;;
239;SDS011;104;53.590;10.004;2023-03-11T10:48:30;17.27;;;5.70;;
239;SDS011;104;53.590;10.004;2023-03-11T10:51:00;20.53;;;7.13;;
239;SDS011;104;53.590;10.004;2023-03-11T10:53:30;16.50;;;6.17;;
239;SDS011;104;53.590;10.004;2023-03-11T10:55:58;21.60;;;6.97;;
239;SDS011;104;53.590;10.004;2023-03-11T10:58:26;22.37;;;6.13;;
239;SDS011;104;53.590;10.004;2023-03-11T11:01:01;19.33;;;6.07;;
239;SDS011;104;53.590;10.004;2023-03-11T11:03:30;27.27;;;7.50;;
239;SDS011;104;53.590;10.004;2023-03-11T11:05:59;21.13;;;6.10;;
239;SDS011;104;53.590;10.004;2023-03-11T11:08:28;24.10;;;6.80;;
239;SDS011;104;53.590;10.004;2023-03-11T11:10:58;21.70;;;6.10;;
239;SDS011;104;53.590;10.004;2023-03-11T11:13:27;28.87;;;6.53;;
239;SDS011;104;53.590;10.004;2023-03-11T11:15:57;21.43;;;6.63;;
239;SDS011;104;53.590;10.004;2023-03-11T11:18:28;30.63;;;8.07;;
239;SDS011;104;53.590;10.004;2023-03-11T11:20:58;21.30;;;6.40;;
239;SDS011;104;53.590;10.004;2023-03-11T11:23:29;17.70;;;5.40;;
239;SDS011;104;53.590;10.004;2023-03-11T11:25:59;16.60;;;5.50;;
239;SDS011;104;53.590;10.004;2023-03-11T11:28:29;19.23;;;6.07;;
239;SDS011;104;53.590;10.004;2023-03-11T11:30:57;22.87;;;6.67;;
239;SDS011;104;53.590;10.004;2023-03-11T11:33:26;17.53;;;5.53;;
239;SDS011;104;53.590;10.004;2023-03-11T11:35:55;42.97;;;8.93;;
239;SDS011;104;53.590;10.004;2023-03-11T11:38:26;23.40;;;7.30;;
239;SDS011;104;53.590;10.004;2023-03-11T11:40:54;20.40;;;6.60;;
239;SDS011;104;53.590;10.004;2023-03-11T11:43:27;25.10;;;7.00;;
239;SDS011;104;53.590;10.004;2023-03-11T11:45:59;19.10;;;5.90;;
239;SDS011;104;53.590;10.004;2023-03-11T11:48:28;19.73;;;5.50;;
239;SDS011;104;53.590;10.004;2023-03-11T11:50:59;25.43;;;5.90;;
239;SDS011;104;53.590;10.004;2023-03-11T11:53:30;14.50;;;4.80;;
239;SDS011;104;53.590;10.004;2023-03-11T11:56:01;20.57;;;5.80;;
239;SDS011;104;53.590;10.004;2023-03-11T11:58:30;16.43;;;5.13;;
239;SDS011;104;53.590;10.004;2023-03-11T12:01:02;22.57;;;5.83;;
239;SDS011;104;53.590;10.004;2023-03-11T12:03:38;10.67;;;4.10;;
239;SDS011;104;53.590;10.004;2023-03-11T12:06:09;21.83;;;6.03;;
239;SDS011;104;53.590;10.004;2023-03-11T12:08:40;18.07;;;5.77;;
239;SDS011;104;53.590;10.004;2023-03-11T12:11:09;11.10;;;4.10;;
239;SDS011;104;53.590;10.004;2023-03-11T12:13:46;17.13;;;5.27;;
239;SDS011;104;53.590;10.004;2023-03-11T12:16:19;23.67;;;6.60;;
239;SDS011;104;53.590;10.004;2023-03-11T12:18:50;25.83;;;6.27;;
239;SDS011;104;53.590;10.004;2023-03-11T12:21:26;15.80;;;5.30;;
239;SDS011;104;53.590;10.004;2023-03-11T12:23:58;22.50;;;6.40;;
239;SDS011;104;53.590;10.004;2023-03-11T12:26:35;26.67;;;6.80;;
239;SDS011;104;53.590;10.004;2023-03-11T12:29:05;24.17;;;6.77;;
239;SDS011;104;53.590;10.004;2023-03-11T12:31:34;19.93;;;6.33;;
239;SDS011;104;53.590;10.004;2023-03-11T12:34:04;17.40;;;5.60;;
239;SDS011;104;53.590;10.004;2023-03-11T12:36:34;17.07;;;5.87;;
239;SDS011;104;53.590;10.004;2023-03-11T12:39:05;20.27;;;4.90;;
239;SDS011;104;53.590;10.004;2023-03-11T12:41:34;17.20;;;5.70;;
239;SDS011;104;53.590;10.004;2023-03-11T12:44:10;17.13;;;5.33;;
239;SDS011;104;53.590;10.004;2023-03-11T12:49:45;28.33;;;6.97;;
239;SDS011;104;53.590;10.004;2023-03-11T12:52:17;21.83;;;6.10;;
239;SDS011;104;53.590;10.004;2023-03-11T12:54:47;28.17;;;7.87;;
239;SDS011;104;53.590;10.004;2023-03-11T12:57:25;22.70;;;6.77;;
239;SDS011;104;53.590;10.004;2023-03-11T13:00:12;18.87;;;6.27;;
239;SDS011;104;53.590;10.004;2023-03-11T13:02:51;15.90;;;5.17;;
239;SDS011;104;53.590;10.004;2023-03-11T13:05:23;24.40;;;5.83;;
239;SDS011;104;53.590;10.004;2023-03-11T13:07:53;17.33;;;5.67;;
239;SDS011;104;53.590;10.004;2023-03-11T13:10:34;26.90;;;8.13;;
239;SDS011;104;53.590;10.004;2023-03-11T13:15:45;26.00;;;7.33;;
239;SDS011;104;53.590;10.004;2023-03-11T13:18:14;28.27;;;8.17;;
239;SDS011;104;53.590;10.004;2023-03-11T13:20:45;11.43;;;4.63;;
239;SDS011;104;53.590;10.004;2023-03-11T13:23:21;21.67;;;5.73;;
239;SDS011;104;53.590;10.004;2023-03-11T13:26:01;23.97;;;6.40;;
239;SDS011;104;53.590;10.004;2023-03-11T13:31:38;29.33;;;6.80;;
239;SDS011;104;53.590;10.004;2023-03-11T13:34:12;21.10;;;6.37;;
239;SDS011;104;53.590;10.004;2023-03-11T13:36:43;14.67;;;4.43;;
239;SDS011;104;53.590;10.004;2023-03-11T13:39:24;27.30;;;8.30;;
239;SDS011;104;53.590;10.004;2023-03-11T13:42:16;23.00;;;6.47;;
239;SDS011;104;53.590;10.004;2023-03-11T13:44:51;22.60;;;6.57;;
239;SDS011;104;53.590;10.004;2023-03-11T13:47:20;21.07;;;5.87;;
239;SDS011;104;53.590;10.004;2023-03-11T13:49:49;29.47;;;8.20;;
239;SDS011;104;53.590;10.004;2023-03-11T13:52:23;31.97;;;9.10;;
239;SDS011;104;53.590;10.004;2023-03-11T13:54:53;32.43;;;9.43;;
239;SDS011;104;53.590;10.004;2023-03-11T13:57:26;31.20;;;8.63;;
239;SDS011;104;53.590;10.004;2023-03-11T13:59:56;29.63;;;8.17;;
239;SDS011;104;53.590;10.004;2023-03-11T14:02:25;34.43;;;8.87;;
239;SDS011;104;53.590;10.004;2023-03-11T14:04:53;23.13;;;6.87;;
239;SDS011;104;53.590;10.004;2023-03-11T14:07:24;22.50;;;7.03;;
239;SDS011;104;53.590;10.004;2023-03-11T14:12:44;31.80;;;6.27;;
239;SDS011;104;53.590;10.004;2023-03-11T14:15:12;26.37;;;7.30;;
239;SDS011;104;53.590;10.004;2023-03-11T14:17:42;24.53;;;7.33;;
239;SDS011;104;53.590;10.004;2023-03-11T14:20:12;29.83;;;8.53;;
239;SDS011;104;53.590;10.004;2023-03-11T14:22:42;26.77;;;7.10;;
239;SDS011;104;53.590;10.004;2023-03-11T14:25:13;31.33;;;8.10;;
239;SDS011;104;53.590;10.004;2023-03-11T14:27:44;37.93;;;10.40;;
239;SDS011;104;53.590;10.004;2023-03-11T14:30:17;30.83;;;8.20;;
239;SDS011;104;53.590;10.004;2023-03-11T14:32:53;26.00;;;7.40;;
239;SDS011;104;53.590;10.004;2023-03-11T14:35:21;26.67;;;8.33;;
239;SDS011;104;53.590;10.004;2023-03-11T14:37:48;24.70;;;7.77;;
239;SDS011;104;53.590;10.004;2023-03-11T14:40:21;24.37;;;7.13;;
239;SDS011;104;53.590;10.004;2023-03-11T14:42:49;30.60;;;8.37;;
239;SDS011;104;53.590;10.004;2023-03-11T14:45:19;27.33;;;8.00;;
239;SDS011;104;53.590;10.004;2023-03-11T14:47:50;29.23;;;8.23;;
239;SDS011;104;53.590;10.004;2023-03-11T14:50:22;37.67;;;9.60;;
239;SDS011;104;53.590;10.004;2023-03-11T14:52:51;17.87;;;5.70;;
239;SDS011;104;53.590;10.004;2023-03-11T14:55:23;22.37;;;6.93;;
239;SDS011;104;53.590;10.004;2023-03-11T14:57:55;26.30;;;6.90;;
239;SDS011;104;53.590;10.004;2023-03-11T15:00:26;22.80;;;6.47;;
239;SDS011;104;53.590;10.004;2023-03-11T15:02:57;22.40;;;6.83;;
239;SDS011;104;53.590;10.004;2023-03-11T15:05:29;25.33;;;7.50;;
239;SDS011;104;53.590;10.004;2023-03-11T15:08:00;26.70;;;7.50;;
239;SDS011;104;53.590;10.004;2023-03-11T15:10:28;26.13;;;6.93;;
239;SDS011;104;53.590;10.004;2023-03-11T15:13:06;17.00;;;5.17;;
239;SDS011;104;53.590;10.004;2023-03-11T15:15:35;40.27;;;7.23;;
239;SDS011;104;53.590;10.004;2023-03-11T15:18:17;26.33;;;8.13;;
239;SDS011;104;53.590;10.004;2023-03-11T15:20:58;37.03;;;9.80;;
239;SDS011;104;53.590;10.004;2023-03-11T15:23:28;31.20;;;8.50;;
239;SDS011;104;53.590;10.004;2023-03-11T15:25:55;21.23;;;6.57;;
239;SDS011;104;53.590;10.004;2023-03-11T15:28:23;21.13;;;6.57;;
239;SDS011;104;53.590;10.004;2023-03-11T15:33:56;49.93;;;8.33;;
239;SDS011;104;53.590;10.004;2023-03-11T15:36:53;29.00;;;8.60;;
239;SDS011;104;53.590;10.004;2023-03-11T15:39:40;30.70;;;9.23;;
239;SDS011;104;53.590;10.004;2023-03-11T15:42:11;31.87;;;9.13;;
239;SDS011;104;53.590;10.004;2023-03-11T15:44:59;31.10;;;9.63;;